Time;durP1;ratioP1;P1;durP2;ratioP2;P2;SDS_P1;SDS_P2;PMS_P1;PMS_P2;Temp;Humidity;BMP_temperature;BMP_pressure;BME280_temperature;BME280_humidity;BME280_pressure;Samples;Min_cycle;Max_cycle;Signal;HPM_P1;HPM_P2
2022/10/08 00:01:03;;;;;;;;;9.00;8.50;;;;;15.38;50.55;101727.84;4921568;28;45224;-78
2022/10/08 00:03:32;;;;;;;;;9.25;8.25;;;;;15.33;50.57;101734.97;4922450;28;45447;-78
2022/10/08 00:05:57;;;;;;;;;12.25;12.25;;;;;15.31;50.54;101734.09;4905221;28;45762;-79
2022/10/08 00:08:23;;;;;;;;;12.00;11.50;;;;;15.22;51.16;101733.28;4924296;28;45299;-78
2022/10/08 00:10:57;;;;;;;;;67.00;49.75;;;;;15.22;51.46;101727.09;4915278;28;45692;-79
2022/10/08 00:13:26;;;;;;;;;5.50;5.50;;;;;15.24;50.94;101732.41;4937256;28;45302;-79
2022/10/08 00:15:52;;;;;;;;;11.25;9.00;;;;;15.16;51.45;101722.72;4930864;28;45454;-79
2022/10/08 00:18:19;;;;;;;;;14.00;12.50;;;;;15.12;51.44;101736.88;4907643;28;47624;-78
2022/10/08 00:20:45;;;;;;;;;9.25;8.00;;;;;15.10;51.25;101736.03;4916169;28;45466;-78
2022/10/08 00:23:10;;;;;;;;;6.00;5.25;;;;;15.04;51.45;101736.03;4918471;28;45423;-79
2022/10/08 00:25:41;;;;;;;;;29.50;25.25;;;;;15.03;51.30;101739.59;4904382;28;45340;-79
2022/10/08 00:28:08;;;;;;;;;13.75;13.50;;;;;14.95;51.66;101729.03;4920723;28;46947;-79
2022/10/08 00:30:41;;;;;;;;;29.75;24.00;;;;;14.97;51.55;101742.28;4917150;28;45498;-78
2022/10/08 00:33:07;;;;;;;;;7.50;7.50;;;;;14.96;51.86;101748.47;4902957;28;45382;-79
2022/10/08 00:35:43;;;;;;;;;14.50;11.25;;;;;14.93;51.86;101736.09;4917291;28;45503;-78
2022/10/08 00:38:09;;;;;;;;;4.00;4.00;;;;;14.87;52.05;101730.84;4904346;28;46418;-79
2022/10/08 00:40:43;;;;;;;;;6.25;6.25;;;;;14.86;52.04;101736.16;4904436;28;45416;-78
2022/10/08 00:43:35;;;;;;;;;4.25;4.25;;;;;14.84;52.09;101744.13;4910567;28;45355;-79
2022/10/08 00:46:02;;;;;;;;;7.00;5.75;;;;;14.80;52.01;101752.09;4934722;28;45418;-79
2022/10/08 00:48:28;;;;;;;;;7.75;7.00;;;;;14.75;52.26;101747.72;4917432;28;47031;-79
2022/10/08 00:50:54;;;;;;;;;5.00;4.50;;;;;14.69;52.59;101737.13;4902688;28;45517;-78
2022/10/08 00:53:20;;;;;;;;;9.00;7.00;;;;;14.69;52.48;101734.47;4921910;28;45421;-79
2022/10/08 00:55:45;;;;;;;;;4.25;4.00;;;;;14.64;52.96;101738.03;4904140;28;45400;-78
2022/10/08 00:58:21;;;;;;;;;5.75;5.50;;;;;14.67;53.20;101744.19;4918786;28;46029;-79
2022/10/08 01:00:48;;;;;;;;;5.75;4.00;;;;;14.64;53.02;101743.34;4904556;28;45274;-78
2022/10/08 01:03:14;;;;;;;;;5.00;5.00;;;;;14.64;52.94;101744.22;4921643;28;45484;-78
2022/10/08 01:05:54;;;;;;;;;7.75;5.75;;;;;14.64;53.48;101746.84;4904566;28;45209;-79
2022/10/08 01:08:50;;;;;;;;;6.00;4.75;;;;;14.68;53.45;101756.56;4932938;28;46949;-79
2022/10/08 01:11:43;;;;;;;;;5.00;5.00;;;;;14.68;53.64;101753.03;4922415;28;45404;-80
2022/10/08 01:14:11;;;;;;;;;5.25;3.00;;;;;14.68;53.51;101761.00;4915994;28;45497;-78
2022/10/08 01:17:17;;;;;;;;;5.75;4.75;;;;;14.67;53.44;101753.91;4922893;28;45476;-78
2022/10/08 01:20:14;;;;;;;;;6.25;6.00;;;;;14.66;53.51;101752.16;4896354;28;47090;-78
2022/10/08 01:22:51;;;;;;;;;5.25;4.50;;;;;14.66;53.58;101749.50;4899868;28;45270;-78
2022/10/08 01:25:43;;;;;;;;;6.00;6.00;;;;;14.67;53.87;101748.63;4916653;28;45474;-78
2022/10/08 01:28:15;;;;;;;;;8.25;6.00;;;;;14.64;53.52;101735.38;4914196;28;45454;-78
2022/10/08 01:30:48;;;;;;;;;5.00;5.00;;;;;14.58;54.14;101731.00;4924541;28;46413;-78
2022/10/08 01:33:24;;;;;;;;;5.00;4.00;;;;;14.63;54.29;101745.09;4919914;28;45396;-79
2022/10/08 01:35:56;;;;;;;;;3.00;3.00;;;;;14.63;54.01;101737.16;4907373;28;45387;-78
2022/10/08 01:38:25;;;;;;;;;4.50;3.25;;;;;14.64;54.47;101738.91;4907411;28;45509;-79
2022/10/08 01:40:57;;;;;;;;;4.75;4.00;;;;;14.57;54.65;101729.25;4906975;28;46525;-79
2022/10/08 01:43:30;;;;;;;;;5.00;4.25;;;;;14.62;54.80;101731.84;4924506;28;45339;-78
2022/10/08 01:46:02;;;;;;;;;6.50;4.25;;;;;14.61;54.54;101728.31;4907178;28;45516;-79
2022/10/08 01:48:32;;;;;;;;;6.50;6.50;;;;;14.64;54.75;101725.66;4924596;28;45214;-79
2022/10/08 01:51:04;;;;;;;;;5.50;5.50;;;;;14.66;54.88;101728.31;4924119;28;46148;-79
2022/10/08 01:53:36;;;;;;;;;7.00;5.00;;;;;14.60;54.69;101723.06;4924319;28;45439;-79
2022/10/08 01:56:05;;;;;;;;;2.75;2.75;;;;;14.64;54.59;101732.72;4905588;28;45394;-79
2022/10/08 01:58:42;;;;;;;;;4.50;4.25;;;;;14.59;54.95;101726.56;4901374;28;45454;-79
2022/10/08 02:01:14;;;;;;;;;5.00;5.00;;;;;14.53;55.06;101717.75;4906802;28;46136;-80
2022/10/08 02:04:31;;;;;;;;;3.00;3.00;;;;;14.52;54.98;101718.66;4906953;28;45840;-79
2022/10/08 02:06:29;;;;;;;;;3.25;3.00;;;;;14.54;55.34;101724.84;4924124;28;45483;-79
2022/10/08 02:08:55;;;;;;;;;4.25;4.25;;;;;14.52;55.16;101723.94;4894678;28;45704;-79
2022/10/08 02:11:20;;;;;;;;;5.50;5.50;;;;;14.47;55.19;101723.06;4923646;28;46294;-78
2022/10/08 02:13:45;;;;;;;;;4.00;4.00;;;;;14.54;55.77;101732.78;4906840;28;45442;-79
2022/10/08 02:16:19;;;;;;;;;5.00;4.00;;;;;14.56;55.32;101722.16;4906824;28;45530;-79
2022/10/08 02:18:53;;;;;;;;;5.00;4.50;;;;;14.55;55.41;101717.75;4911009;28;45406;-79
2022/10/08 02:21:23;;;;;;;;;6.00;6.00;;;;;14.64;55.66;101735.38;4915457;28;45536;-79
2022/10/08 02:24:02;;;;;;;;;8.00;4.50;;;;;14.63;55.58;101723.91;4923217;28;45359;-79
2022/10/08 02:26:37;;;;;;;;;5.00;4.50;;;;;14.63;55.54;101717.72;4920613;28;45459;-78
2022/10/08 02:29:28;;;;;;;;;9.25;5.75;;;;;14.69;55.65;101731.81;4923695;28;45394;-79
2022/10/08 02:32:03;;;;;;;;;5.00;5.00;;;;;14.69;55.25;101723.88;4899551;28;48027;-78
2022/10/08 02:34:38;;;;;;;;;3.00;3.00;;;;;14.66;55.54;101715.94;4923493;28;45313;-79
2022/10/08 02:37:22;;;;;;;;;5.00;4.00;;;;;14.66;55.69;101729.19;4906525;28;45445;-77
2022/10/08 02:39:58;;;;;;;;;5.00;3.00;;;;;14.58;55.99;101724.81;4906159;28;45286;-80
2022/10/08 02:42:27;;;;;;;;;3.00;2.00;;;;;14.56;55.69;101730.09;4906170;28;47143;-79
2022/10/08 02:45:08;;;;;;;;;4.75;4.00;;;;;14.50;56.23;101725.69;4906375;28;45349;-79
2022/10/08 02:47:37;;;;;;;;;5.00;4.00;;;;;14.50;56.16;101727.47;4923413;28;45459;-79
2022/10/08 02:50:09;;;;;;;;;3.00;3.00;;;;;14.45;56.17;101716.88;4919250;28;46803;-78
2022/10/08 02:52:39;;;;;;;;;6.00;5.00;;;;;14.46;56.72;101725.69;4918753;28;46223;-78
2022/10/08 02:55:19;;;;;;;;;4.00;4.00;;;;;14.40;56.73;101721.31;4921816;28;45513;-78
2022/10/08 02:57:53;;;;;;;;;2.50;2.50;;;;;14.37;57.16;101726.63;4906469;28;45279;-78
2022/10/08 03:00:19;;;;;;;;;3.50;3.50;;;;;14.34;57.11;101722.22;4921966;28;45410;-78
2022/10/08 03:02:57;;;;;;;;;5.00;2.50;;;;;14.30;57.05;101723.13;4905996;28;46202;-78
2022/10/08 03:05:23;;;;;;;;;4.50;3.25;;;;;14.29;57.20;101723.13;4923122;28;45352;-79
2022/10/08 03:07:52;;;;;;;;;1.00;1.00;;;;;14.26;57.57;101717.84;4923345;28;45342;-78
2022/10/08 03:10:18;;;;;;;;;5.75;5.00;;;;;14.25;57.88;101724.03;4922863;28;45177;-78
2022/10/08 03:12:44;;;;;;;;;7.00;5.75;;;;;14.23;58.06;101721.38;4905931;28;46987;-79
2022/10/08 03:15:12;;;;;;;;;5.00;3.75;;;;;14.19;58.13;101721.38;4905787;28;45438;-78
2022/10/08 03:17:43;;;;;;;;;6.25;4.25;;;;;14.17;58.32;101712.59;4913060;28;45458;-78
2022/10/08 03:20:10;;;;;;;;;4.00;3.00;;;;;14.20;58.21;101721.38;4903634;28;45243;-78
2022/10/08 03:22:36;;;;;;;;;5.25;5.00;;;;;14.24;58.52;101722.25;4914941;28;45263;-78
2022/10/08 03:25:02;;;;;;;;;5.75;4.00;;;;;14.26;58.78;101728.44;4920935;28;45385;-79
2022/10/08 03:27:28;;;;;;;;;5.25;2.50;;;;;14.25;58.45;101727.56;4918487;28;45443;-78
2022/10/08 03:29:56;;;;;;;;;4.00;4.00;;;;;14.29;58.56;101737.22;4918358;28;45319;-78
2022/10/08 03:32:25;;;;;;;;;2.00;2.00;;;;;14.29;58.76;101736.38;4898363;28;47207;-78
2022/10/08 03:34:51;;;;;;;;;5.75;3.00;;;;;14.34;58.72;101748.69;4905324;28;45214;-79
2022/10/08 03:37:17;;;;;;;;;2.75;2.75;;;;;14.34;58.93;101754.00;4922842;28;45531;-78
2022/10/08 03:39:43;;;;;;;;;5.50;4.75;;;;;14.38;58.59;101756.63;4911082;28;45733;-78
2022/10/08 03:42:09;;;;;;;;;3.50;3.50;;;;;14.34;59.29;101743.41;4929428;28;45544;-79
2022/10/08 03:44:34;;;;;;;;;5.25;3.75;;;;;14.36;59.29;101748.72;4905348;28;45337;-78
2022/10/08 03:47:00;;;;;;;;;4.75;3.00;;;;;14.30;59.12;101751.34;4918235;28;45471;-79
2022/10/08 03:49:25;;;;;;;;;2.00;2.00;;;;;14.28;59.24;101758.44;4905246;28;45933;-78
2022/10/08 03:51:51;;;;;;;;;6.00;5.50;;;;;14.25;59.55;101763.75;4918189;28;46096;-78
2022/10/08 03:54:16;;;;;;;;;4.25;2.00;;;;;14.21;59.37;101754.03;4922269;28;45347;-78
2022/10/08 03:56:41;;;;;;;;;4.00;4.00;;;;;14.12;59.65;101752.31;4905267;28;45245;-78
2022/10/08 03:59:07;;;;;;;;;4.00;2.00;;;;;14.13;60.14;101759.34;4905307;28;45712;-78
2022/10/08 04:01:33;;;;;;;;;3.50;2.75;;;;;14.08;60.05;101766.44;4922505;28;45506;-78
2022/10/08 04:03:58;;;;;;;;;3.00;3.00;;;;;14.03;60.51;101770.84;4922634;28;45261;-78
2022/10/08 04:06:24;;;;;;;;;3.75;3.75;;;;;14.02;60.47;101783.19;4922838;28;45241;-79
2022/10/08 04:08:49;;;;;;;;;1.00;1.00;;;;;13.94;60.91;101779.69;4921305;28;45249;-78
2022/10/08 04:11:16;;;;;;;;;2.00;2.00;;;;;13.99;61.06;101785.84;4904920;28;46896;-79
2022/10/08 04:13:43;;;;;;;;;2.25;2.25;;;;;13.98;60.66;101786.75;4922331;28;45533;-80
2022/10/08 04:16:14;;;;;;;;;2.00;2.00;;;;;13.94;60.96;101786.75;4922134;28;45398;-80
2022/10/08 04:18:40;;;;;;;;;2.75;2.50;;;;;13.95;61.29;101792.03;4914030;28;45285;-79
2022/10/08 04:21:08;;;;;;;;;5.25;4.25;;;;;13.97;61.24;101795.56;4929317;28;45506;-79
2022/10/08 04:23:36;;;;;;;;;3.00;3.00;;;;;13.94;61.60;101790.28;4904746;28;45397;-78
2022/10/08 04:26:02;;;;;;;;;5.50;3.75;;;;;13.93;61.84;101798.25;4904638;28;45357;-79
2022/10/08 04:28:28;;;;;;;;;3.00;3.00;;;;;13.99;61.61;101809.69;4909545;28;45270;-79
2022/10/08 04:31:17;;;;;;;;;5.50;5.50;;;;;14.00;61.91;101813.22;4921852;28;46218;-80
2022/10/08 04:33:44;;;;;;;;;5.00;5.00;;;;;13.95;62.33;101804.38;4904664;28;46123;-79
2022/10/08 04:36:15;;;;;;;;;3.75;3.75;;;;;13.98;62.41;101807.03;4921960;28;45343;-79
2022/10/08 04:38:41;;;;;;;;;5.50;5.25;;;;;14.02;62.15;101816.75;4922072;28;45259;-79
2022/10/08 04:41:12;;;;;;;;;6.00;5.25;;;;;14.06;61.98;101823.78;4921557;28;46382;-79
2022/10/08 04:43:39;;;;;;;;;7.25;7.25;;;;;14.00;61.91;101807.91;4904689;28;45451;-79
2022/10/08 04:46:07;;;;;;;;;4.75;4.75;;;;;14.07;62.25;101821.16;4905316;28;45316;-79
2022/10/08 04:48:32;;;;;;;;;7.75;7.75;;;;;14.02;62.55;101804.38;4908021;28;46120;-79
2022/10/08 04:51:00;;;;;;;;;5.00;4.75;;;;;14.01;62.15;101807.94;4925051;28;46350;-79
2022/10/08 04:53:26;;;;;;;;;8.00;8.00;;;;;14.00;62.71;101808.78;4908101;28;45435;-79
2022/10/08 04:55:53;;;;;;;;;6.75;6.25;;;;;13.99;62.71;101814.97;4907666;28;45404;-78
2022/10/08 04:58:23;;;;;;;;;8.50;7.50;;;;;14.00;62.71;101819.38;4907711;28;45466;-78
2022/10/08 05:00:49;;;;;;;;;7.75;6.75;;;;;13.95;62.81;101812.34;4912632;28;45437;-79
2022/10/08 05:03:14;;;;;;;;;6.75;6.00;;;;;13.90;63.10;101810.59;4924892;28;45289;-79
2022/10/08 05:05:42;;;;;;;;;4.50;4.50;;;;;13.93;63.15;101819.41;4908033;28;45475;-79
2022/10/08 05:08:07;;;;;;;;;4.25;4.00;;;;;13.96;63.01;101828.22;4924959;28;45512;-78
2022/10/08 05:10:34;;;;;;;;;6.50;4.25;;;;;13.94;62.90;101831.75;4921556;28;46519;-78
2022/10/08 05:12:59;;;;;;;;;2.75;2.50;;;;;13.95;63.37;101828.22;4934793;28;45463;-78
2022/10/08 05:15:25;;;;;;;;;4.00;4.00;;;;;13.97;63.13;101834.41;4930852;28;45199;-79
2022/10/08 05:17:50;;;;;;;;;3.25;3.00;;;;;13.97;63.22;101845.00;4932395;28;45447;-80
2022/10/08 05:20:16;;;;;;;;;4.00;2.25;;;;;13.87;63.39;101823.81;4932898;28;45340;-79
2022/10/08 05:22:41;;;;;;;;;2.00;2.00;;;;;13.90;63.61;101842.34;4931620;28;45394;-78
2022/10/08 05:25:07;;;;;;;;;2.50;1.75;;;;;13.90;63.68;101847.66;4924365;28;45372;-78
2022/10/08 05:27:33;;;;;;;;;3.00;3.00;;;;;13.86;63.66;101840.56;4920436;28;45367;-78
2022/10/08 05:29:59;;;;;;;;;5.75;5.75;;;;;13.90;64.35;101850.28;4925922;28;45463;-78
2022/10/08 05:32:24;;;;;;;;;2.25;2.25;;;;;13.86;64.14;101845.88;4915682;28;45547;-78
2022/10/08 05:34:50;;;;;;;;;4.00;1.00;;;;;13.82;64.17;101853.78;4918406;28;45247;-78
2022/10/08 05:37:15;;;;;;;;;5.50;4.00;;;;;13.80;64.35;101845.88;4931699;28;45407;-78
2022/10/08 05:39:41;;;;;;;;;2.75;2.75;;;;;13.80;64.32;101852.94;4924343;28;45792;-78
2022/10/08 05:42:06;;;;;;;;;3.00;3.00;;;;;13.82;64.25;101859.09;4924654;28;45409;-79
2022/10/08 05:44:31;;;;;;;;;3.50;3.50;;;;;13.77;64.43;101850.28;4924650;28;45250;-79
2022/10/08 05:46:57;;;;;;;;;3.75;3.75;;;;;13.76;64.70;101853.78;4924575;28;45452;-79
2022/10/08 05:49:23;;;;;;;;;4.50;1.00;;;;;13.71;64.51;101847.63;4924330;28;46532;-79
2022/10/08 05:51:49;;;;;;;;;4.00;3.00;;;;;13.75;64.52;101855.56;4907591;28;45286;-79
2022/10/08 05:54:15;;;;;;;;;2.50;2.00;;;;;13.75;65.03;101865.28;4924583;28;45209;-79
2022/10/08 05:56:41;;;;;;;;;2.25;2.00;;;;;13.74;65.20;101858.19;4924290;28;45280;-78
2022/10/08 05:59:14;;;;;;;;;4.25;3.00;;;;;13.74;65.24;101859.09;4911277;28;47310;-79
2022/10/08 06:01:40;;;;;;;;;4.00;4.00;;;;;13.76;65.33;101872.31;4936934;28;45312;-79
2022/10/08 06:04:05;;;;;;;;;2.25;2.25;;;;;13.76;65.21;101875.84;4909445;28;45536;-78
2022/10/08 06:06:33;;;;;;;;;5.25;3.25;;;;;13.77;65.44;101875.00;4937270;28;45534;-78
2022/10/08 06:09:00;;;;;;;;;4.00;4.00;;;;;13.77;65.43;101871.47;4923746;28;46659;-77
2022/10/08 06:11:28;;;;;;;;;3.25;3.25;;;;;13.80;64.99;101871.47;4910969;28;45631;-77
2022/10/08 06:13:54;;;;;;;;;2.00;2.00;;;;;13.80;65.13;101880.28;4932832;28;45450;-77
2022/10/08 06:16:21;;;;;;;;;3.75;3.25;;;;;13.85;65.58;101886.47;4923947;28;45573;-77
2022/10/08 06:18:47;;;;;;;;;7.00;6.00;;;;;13.86;65.11;101896.16;4893857;28;48573;-77
2022/10/08 06:21:15;;;;;;;;;3.00;3.00;;;;;13.85;65.29;101898.81;4913792;28;45781;-77
2022/10/08 06:23:46;;;;;;;;;3.25;3.00;;;;;13.89;65.24;101905.88;4910256;28;45489;-78
2022/10/08 06:26:12;;;;;;;;;6.00;4.50;;;;;13.87;64.82;101902.31;4905944;28;45389;-78
2022/10/08 06:28:38;;;;;;;;;3.00;3.00;;;;;13.85;65.07;101906.75;4906562;28;45929;-77
2022/10/08 06:31:07;;;;;;;;;4.25;4.25;;;;;13.81;65.70;101897.91;4920550;28;45530;-77
2022/10/08 06:33:33;;;;;;;;;4.25;4.00;;;;;13.86;65.14;101905.88;4906698;28;45343;-78
2022/10/08 06:36:03;;;;;;;;;3.00;3.00;;;;;13.87;65.42;101916.47;4923368;28;45395;-77
2022/10/08 06:38:29;;;;;;;;;5.00;3.00;;;;;13.89;65.12;101917.34;4923728;28;45470;-77
2022/10/08 06:40:59;;;;;;;;;4.75;3.75;;;;;13.86;65.29;101909.41;4922876;28;45368;-77
2022/10/08 06:43:25;;;;;;;;;4.50;3.00;;;;;13.86;65.33;101914.69;4906009;28;45295;-77
2022/10/08 06:45:50;;;;;;;;;4.00;3.00;;;;;13.86;65.15;101912.03;4923080;28;45657;-77
2022/10/08 06:48:16;;;;;;;;;4.75;4.25;;;;;13.87;65.26;101921.78;4918838;28;47638;-77
2022/10/08 06:50:41;;;;;;;;;4.25;4.00;;;;;13.87;65.64;101924.41;4903622;28;45334;-77
2022/10/08 06:53:10;;;;;;;;;3.75;3.00;;;;;13.88;65.46;101930.59;4923605;28;45458;-77
2022/10/08 06:55:35;;;;;;;;;4.75;4.75;;;;;13.88;65.17;101925.28;4922821;28;45359;-77
2022/10/08 06:58:02;;;;;;;;;4.75;4.00;;;;;13.90;65.31;101932.34;4923212;28;45888;-80
2022/10/08 07:00:28;;;;;;;;;5.00;5.00;;;;;13.89;65.37;101935.88;4920871;28;45248;-79
2022/10/08 07:02:55;;;;;;;;;5.75;4.75;;;;;13.89;65.38;101933.22;4923034;28;45387;-79
2022/10/08 07:05:20;;;;;;;;;5.25;5.00;;;;;13.99;65.26;101942.06;4921791;28;46112;-78
2022/10/08 07:07:46;;;;;;;;;4.25;4.00;;;;;14.00;65.50;101945.59;4922730;28;46589;-78
2022/10/08 07:10:11;;;;;;;;;6.00;6.00;;;;;14.01;65.59;101958.84;4920394;28;45692;-77
2022/10/08 07:12:37;;;;;;;;;4.25;4.25;;;;;13.99;65.49;101947.38;4923235;28;45399;-79
2022/10/08 07:15:03;;;;;;;;;5.50;5.00;;;;;14.04;65.66;101969.44;4922542;28;45382;-79
2022/10/08 07:17:28;;;;;;;;;6.00;6.00;;;;;14.01;65.55;101956.22;4922036;28;45512;-79
2022/10/08 07:19:55;;;;;;;;;7.75;7.00;;;;;14.04;65.65;101963.28;4905218;28;45264;-78
2022/10/08 07:22:21;;;;;;;;;6.00;6.00;;;;;14.04;65.59;101961.50;4896429;28;45428;-78
2022/10/08 07:24:46;;;;;;;;;5.25;4.50;;;;;14.01;65.42;101963.28;4904918;28;45423;-76
2022/10/08 07:27:12;;;;;;;;;6.25;4.25;;;;;14.08;65.72;101970.31;4904173;28;46176;-77
2022/10/08 07:29:38;;;;;;;;;7.75;7.75;;;;;14.04;65.84;101976.50;4904150;28;45342;-78
2022/10/08 07:32:03;;;;;;;;;8.25;6.25;;;;;14.08;65.63;101988.84;4904705;28;45391;-79
2022/10/08 07:34:29;;;;;;;;;7.00;6.25;;;;;14.03;66.21;101987.97;4929332;28;45588;-79
2022/10/08 07:36:54;;;;;;;;;7.00;5.75;;;;;14.02;66.01;101987.09;4931790;28;45552;-80
2022/10/08 07:39:20;;;;;;;;;7.00;5.75;;;;;14.04;66.22;101995.03;4929864;28;45475;-80
2022/10/08 07:41:48;;;;;;;;;4.00;4.00;;;;;14.02;66.10;101994.16;4912967;28;45446;-81
2022/10/08 07:44:23;;;;;;;;;7.00;5.75;;;;;14.09;66.48;102009.19;4925209;28;45415;-80
2022/10/08 07:46:52;;;;;;;;;8.50;6.25;;;;;14.11;66.42;102007.41;4906885;28;46934;-80
2022/10/08 07:49:18;;;;;;;;;7.00;5.00;;;;;14.05;66.41;102004.75;4911794;28;45464;-79
2022/10/08 07:51:44;;;;;;;;;6.25;4.50;;;;;14.09;66.41;102011.84;4929767;28;45516;-80
2022/10/08 07:54:17;;;;;;;;;5.50;5.50;;;;;14.12;66.35;102020.66;4931373;28;45404;-79
2022/10/08 07:56:43;;;;;;;;;8.25;6.75;;;;;14.16;66.49;102020.66;4926723;28;45550;-80
2022/10/08 07:59:08;;;;;;;;;6.75;6.75;;;;;14.23;66.38;102023.31;4921498;28;45320;-80
2022/10/08 08:01:34;;;;;;;;;5.75;5.75;;;;;14.22;66.63;102018.00;4922291;28;45271;-78
2022/10/08 08:04:05;;;;;;;;;5.25;5.25;;;;;14.25;66.26;102024.22;4904723;28;45695;-79
2022/10/08 08:06:33;;;;;;;;;6.50;5.25;;;;;14.28;66.32;102032.16;4921634;28;46310;-80
2022/10/08 08:09:00;;;;;;;;;5.50;5.50;;;;;14.29;66.63;102028.63;4891700;28;45339;-79
2022/10/08 08:11:26;;;;;;;;;7.50;5.00;;;;;14.28;66.62;102026.88;4916746;28;45595;-78
2022/10/08 08:13:55;;;;;;;;;7.75;5.25;;;;;14.34;66.68;102041.88;4920732;28;45624;-77
2022/10/08 08:16:26;;;;;;;;;4.75;4.25;;;;;14.31;66.75;102041.88;4904328;28;47358;-78
2022/10/08 08:18:54;;;;;;;;;7.00;7.00;;;;;14.36;66.60;102057.81;4914913;28;45332;-78
2022/10/08 08:21:23;;;;;;;;;9.75;8.00;;;;;14.34;66.59;102047.19;4925966;28;45339;-77
2022/10/08 08:23:54;;;;;;;;;12.25;11.00;;;;;14.40;66.56;102048.97;4904492;28;45486;-78
2022/10/08 08:26:23;;;;;;;;;7.25;5.75;;;;;14.39;66.51;102049.84;4899920;28;46242;-78
2022/10/08 08:28:54;;;;;;;;;9.75;7.75;;;;;14.41;66.53;102050.75;4904686;28;45272;-79
2022/10/08 08:31:23;;;;;;;;;11.75;9.00;;;;;14.50;66.67;102066.63;4904180;28;45323;-79
2022/10/08 08:33:53;;;;;;;;;10.00;8.50;;;;;14.50;66.66;102066.63;4919560;28;45492;-78
2022/10/08 08:36:24;;;;;;;;;9.50;8.75;;;;;14.57;66.48;102068.47;4901928;28;47131;-78
2022/10/08 08:38:49;;;;;;;;;10.25;8.25;;;;;14.70;66.81;102077.28;4902428;28;45468;-78
2022/10/08 08:41:48;;;;;;;;;13.50;11.00;;;;;14.82;66.56;102074.66;4902529;28;45485;-79
2022/10/08 08:44:33;;;;;;;;;12.25;10.25;;;;;14.95;66.64;102081.72;4902892;28;45608;-78
2022/10/08 08:47:21;;;;;;;;;13.00;11.00;;;;;15.11;66.00;102084.38;4903922;28;46340;-78
2022/10/08 08:49:55;;;;;;;;;11.00;10.00;;;;;15.19;66.24;102079.94;4911582;28;45416;-78
2022/10/08 08:52:27;;;;;;;;;8.00;7.00;;;;;15.29;65.60;102088.75;4920394;28;45506;-78
2022/10/08 08:54:53;;;;;;;;;10.25;10.25;;;;;15.38;65.60;102091.41;4904024;28;45509;-78
2022/10/08 08:57:47;;;;;;;;;14.00;13.50;;;;;15.49;65.07;102094.91;4904225;28;47293;-78
2022/10/08 09:00:21;;;;;;;;;4.75;4.75;;;;;15.57;65.24;102093.13;4907437;28;45541;-78
2022/10/08 09:03:20;;;;;;;;;6.25;6.25;;;;;15.68;64.66;102101.06;4904389;28;45488;-78
2022/10/08 09:05:52;;;;;;;;;7.00;6.00;;;;;15.78;64.47;102101.94;4921560;28;45436;-77
2022/10/08 09:08:23;;;;;;;;;6.00;4.75;;;;;15.84;63.81;102099.25;4921010;28;46341;-77
2022/10/08 09:10:55;;;;;;;;;8.75;7.25;;;;;15.95;63.79;102101.88;4903895;28;45468;-78
2022/10/08 09:13:29;;;;;;;;;10.00;9.00;;;;;16.00;63.45;102100.09;4921023;28;45324;-77
2022/10/08 09:15:58;;;;;;;;;6.50;5.00;;;;;16.09;63.33;102097.38;4903324;28;45580;-77
2022/10/08 09:18:23;;;;;;;;;5.00;4.00;;;;;16.18;62.68;102104.44;4890975;28;48430;-78
2022/10/08 09:20:49;;;;;;;;;6.67;6.00;;;;;16.24;62.70;102101.75;4915718;28;45397;-77
2022/10/08 09:23:21;;;;;;;;;8.00;8.00;;;;;16.34;62.00;102107.91;4901187;28;45379;-77
2022/10/08 09:25:55;;;;;;;;;7.75;6.25;;;;;16.40;62.70;102105.19;4920491;28;45315;-78
2022/10/08 09:28:42;;;;;;;;;5.00;4.67;;;;;16.49;61.96;102113.09;4920614;28;46442;-78
2022/10/08 09:31:30;;;;;;;;;4.00;4.00;;;;;16.58;61.46;102113.06;4903370;28;45266;-77
2022/10/08 09:34:16;;;;;;;;;5.00;4.00;;;;;16.67;60.90;102112.09;4924217;28;45332;-78
2022/10/08 09:36:53;;;;;;;;;4.00;4.00;;;;;16.74;60.42;102111.19;4906791;28;45755;-78
2022/10/08 09:39:30;;;;;;;;;3.67;3.67;;;;;16.83;59.94;102116.44;4923875;28;45446;-79
2022/10/08 09:42:13;;;;;;;;;4.75;3.50;;;;;16.93;59.30;102122.59;4919670;28;45324;-78
2022/10/08 09:44:57;;;;;;;;;5.33;4.00;;;;;17.01;59.13;102117.22;4894554;28;45383;-79
2022/10/08 09:47:25;;;;;;;;;3.00;3.00;;;;;17.09;58.72;102116.25;4923693;28;45324;-79
2022/10/08 09:50:03;;;;;;;;;6.67;5.67;;;;;17.23;58.53;102124.09;4933154;28;45576;-79
2022/10/08 09:52:28;;;;;;;;;3.67;3.00;;;;;17.34;57.96;102124.00;4925647;28;45443;-79
2022/10/08 09:55:15;;;;;;;;;5.33;4.00;;;;;17.48;58.05;102121.19;4923499;28;45189;-79
2022/10/08 09:57:45;;;;;;;;;4.00;4.00;;;;;17.66;57.10;102129.00;4894733;28;45263;-79
2022/10/08 10:00:22;;;;;;;;;4.00;4.00;;;;;17.83;56.61;102113.75;4923521;28;45500;-79
2022/10/08 10:02:53;;;;;;;;;2.00;2.00;;;;;18.00;56.38;102118.84;4915757;28;45477;-79
2022/10/08 10:05:29;;;;;;;;;5.00;5.00;;;;;18.16;55.51;102122.22;4905476;28;45273;-80
2022/10/08 10:07:55;;;;;;;;;4.67;2.33;;;;;18.28;55.14;102126.50;4916278;28;45388;-79
2022/10/08 10:10:28;;;;;;;;;3.67;3.00;;;;;18.38;54.57;102108.59;4923027;28;45499;-79
2022/10/08 10:13:18;;;;;;;;;4.33;3.33;;;;;18.45;54.25;102120.94;4923003;28;45474;-77
2022/10/08 10:15:51;;;;;;;;;9.00;5.67;;;;;18.56;54.09;102128.78;4900372;28;45492;-79
2022/10/08 10:18:25;;;;;;;;;2.67;2.00;;;;;18.63;52.84;102122.44;4910267;28;45419;-79
2022/10/08 10:21:00;;;;;;;;;1.67;1.67;;;;;18.69;51.97;102130.38;4900150;29;47363;-80
2022/10/08 10:23:37;;;;;;;;;4.00;2.67;;;;;18.72;51.88;102124.97;4921396;28;45545;-79
2022/10/08 10:26:12;;;;;;;;;4.00;2.67;;;;;18.74;51.49;102128.50;4921520;28;45307;-79
2022/10/08 10:28:56;;;;;;;;;3.00;2.67;;;;;18.82;51.57;102128.41;4910233;28;45515;-79
2022/10/08 10:31:35;;;;;;;;;4.33;3.00;;;;;18.88;50.96;102129.19;4905626;28;47614;-79
2022/10/08 10:34:16;;;;;;;;;2.33;2.33;;;;;18.91;50.51;102131.81;4905774;28;45388;-79
2022/10/08 10:36:48;;;;;;;;;2.00;2.00;;;;;18.90;50.45;102123.84;4893998;28;45317;-78
2022/10/08 10:39:32;;;;;;;;;3.33;2.00;;;;;18.89;50.10;102124.75;4905164;28;45345;-78
2022/10/08 10:42:06;;;;;;;;;2.00;2.00;;;;;18.87;49.79;102126.53;4921434;28;46471;-78
2022/10/08 10:45:13;;;;;;;;;5.00;5.00;;;;;18.90;49.76;102126.53;4904647;28;45321;-78
2022/10/08 10:47:39;;;;;;;;;8.75;8.50;;;;;19.05;49.75;102123.56;4922802;28;45357;-79
2022/10/08 10:50:11;;;;;;;;;16.00;12.50;;;;;19.16;49.36;102126.97;4923295;28;45378;-79
2022/10/08 10:53:01;;;;;;;;;3.33;2.67;;;;;19.36;49.49;102131.06;4921711;28;48112;-79
2022/10/08 10:55:52;;;;;;;;;2.00;2.00;;;;;19.55;47.79;102131.59;4922656;28;45299;-79
2022/10/08 10:58:41;;;;;;;;;2.00;2.00;;;;;19.68;46.62;102135.84;4905849;28;45515;-79
2022/10/08 11:01:30;;;;;;;;;2.67;2.00;;;;;19.83;46.31;102131.97;4913088;28;45276;-79
2022/10/08 11:04:31;;;;;;;;;0.33;0.33;;;;;19.98;45.82;102118.28;4905219;28;48473;-79
2022/10/08 11:07:12;;;;;;;;;2.67;2.00;;;;;20.17;45.78;102124.13;4871621;28;45627;-79
2022/10/08 11:09:54;;;;;;;;;4.33;3.33;;;;;20.32;45.25;102117.56;4918109;28;45461;-80
2022/10/08 11:12:33;;;;;;;;;3.33;2.33;;;;;20.53;45.06;102123.34;4922882;28;45363;-79
2022/10/08 11:15:15;;;;;;;;;1.00;1.00;;;;;20.70;45.05;102124.75;4922347;28;45650;-79
2022/10/08 11:17:54;;;;;;;;;1.33;1.33;;;;;20.89;44.10;102130.53;4902009;29;46123;-79
2022/10/08 11:20:38;;;;;;;;;4.67;3.00;;;;;21.03;43.25;102127.50;4903124;28;45482;-80
2022/10/08 11:23:34;;;;;;;;;3.00;2.00;;;;;21.17;42.40;102118.25;4900822;28;45347;-80
2022/10/08 11:26:24;;;;;;;;;4.33;2.00;;;;;21.36;42.23;102136.50;4921640;28;46360;-80
2022/10/08 11:29:20;;;;;;;;;2.33;2.33;;;;;21.63;40.71;102128.66;4895694;28;45348;-77
2022/10/08 11:31:49;;;;;;;;;2.00;1.00;;;;;22.01;40.19;102129.34;4908753;28;45338;-80
2022/10/08 11:34:23;;;;;;;;;3.00;3.00;;;;;22.48;39.95;102123.50;4904779;28;45351;-77
2022/10/08 11:37:21;;;;;;;;;4.67;3.00;;;;;23.76;39.81;102124.56;4904526;28;47412;-79
2022/10/08 11:40:13;;;;;;;;;4.00;2.00;;;;;27.10;38.35;102108.13;4897889;28;45355;-78
2022/10/08 11:42:56;;;;;;;;;1.33;1.33;;;;;30.06;33.13;102110.13;4905009;28;45450;-77
2022/10/08 11:45:22;;;;;;;;;0.00;0.00;;;;;32.04;30.85;102093.06;4922313;28;45275;-80